Time;durP1;ratioP1;P1;durP2;ratioP2;P2;SDS_P1;SDS_P2;PMS_P1;PMS_P2;Temp;Humidity;BMP_temperature;BMP_pressure;BME280_temperature;BME280_humidity;BME280_pressure;Samples;Min_cycle;Max_cycle;Signal;HPM_P1;HPM_P2
2022/11/22 00:00:37;;;;;;;;;;;;;;;6.19;74.77;99609.03;5361768;32;34425;-73
2022/11/22 00:03:39;;;;;;;;;;;;;;;5.79;75.44;99615.50;5362766;32;34981;-67
2022/11/22 00:06:41;;;;;;;;;;;;;;;6.08;75.92;99617.22;5348125;32;35238;-73
2022/11/22 00:09:43;;;;;;;;;;;;;;;6.87;70.83;99603.16;5344551;32;35057;-73
2022/11/22 00:12:44;;;;;;;;;;;;;;;6.37;72.43;99604.94;5358805;32;34539;-73
2022/11/22 00:15:59;;;;;;;;;;;;;;;5.96;75.18;99599.34;5366823;32;35432;-73
2022/11/22 00:19:01;;;;;;;;;;;;;;;5.80;75.06;99606.78;5337360;32;46107;-68
2022/11/22 00:22:03;;;;;;;;;;;;;;;6.55;72.87;99606.06;5343108;32;35372;-68
2022/11/22 00:25:06;;;;;;;;;;;;;;;6.30;71.61;99606.91;5379535;32;35107;-67
2022/11/22 00:28:07;;;;;;;;;;;;;;;5.70;75.23;99631.44;5347143;32;35536;-67
2022/11/22 00:31:09;;;;;;;;;;;;;;;5.35;77.52;99629.94;5361292;32;34938;-73
2022/11/22 00:34:11;;;;;;;;;;;;;;;5.43;78.06;99625.31;5366264;32;35132;-73
2022/11/22 00:37:13;;;;;;;;;;;;;;;5.49;75.88;99622.53;5335882;32;35634;-69
2022/11/22 00:40:15;;;;;;;;;;;;;;;4.61;80.77;99625.94;5372448;32;34737;-67
2022/11/22 00:43:16;;;;;;;;;;;;;;;4.46;81.16;99622.00;5348705;32;34897;-73
2022/11/22 00:46:18;;;;;;;;;;;;;;;5.01;81.88;99609.19;5374341;32;35006;-67
2022/11/22 00:49:20;;;;;;;;;;;;;;;4.99;81.14;99611.00;5353715;32;35379;-74
2022/11/22 00:52:22;;;;;;;;;;;;;;;5.26;77.93;99598.91;5361369;32;35288;-68
2022/11/22 00:55:24;;;;;;;;;;;;;;;5.86;76.51;99600.50;5355166;32;34909;-67
2022/11/22 00:58:26;;;;;;;;;;;;;;;5.10;80.22;99601.97;5351122;32;36415;-73
2022/11/22 01:01:28;;;;;;;;;;;;;;;4.74;81.58;99595.22;5371273;32;34517;-67
2022/11/22 01:04:30;;;;;;;;;;;;;;;5.29;80.48;99604.91;5348697;32;34617;-68
2022/11/22 01:07:31;;;;;;;;;;;;;;;5.70;79.25;99602.75;5359647;32;44896;-72
2022/11/22 01:10:35;;;;;;;;;;;;;;;5.40;79.48;99608.00;5349285;32;34626;-73
2022/11/22 01:13:37;;;;;;;;;;;;;;;4.43;80.20;99610.78;5348425;32;34868;-66
2022/11/22 01:16:38;;;;;;;;;;;;;;;5.72;79.36;99604.41;5349462;32;34744;-73
2022/11/22 01:19:40;;;;;;;;;;;;;;;6.54;73.27;99592.16;5328339;32;35429;-74
2022/11/22 01:22:42;;;;;;;;;;;;;;;5.48;75.06;99607.81;5362873;32;34756;-67
2022/11/22 01:25:44;;;;;;;;;;;;;;;6.24;75.53;99601.88;5353133;32;34815;-72
2022/11/22 01:28:46;;;;;;;;;;;;;;;6.64;72.70;99595.31;5367322;32;34898;-67
2022/11/22 01:31:47;;;;;;;;;;;;;;;6.69;71.34;99588.97;5342330;32;34304;-73
2022/11/22 01:34:49;;;;;;;;;;;;;;;6.02;73.99;99587.88;5361044;32;34821;-73
2022/11/22 01:37:51;;;;;;;;;;;;;;;6.17;74.24;99582.13;5358627;32;34880;-72
2022/11/22 01:40:53;;;;;;;;;;;;;;;5.15;78.10;99591.41;5353308;32;34760;-72
2022/11/22 01:43:55;;;;;;;;;;;;;;;4.94;80.94;99586.84;5352481;32;35536;-67
2022/11/22 01:46:57;;;;;;;;;;;;;;;5.19;80.71;99589.56;5349190;32;34570;-74
2022/11/22 01:49:59;;;;;;;;;;;;;;;6.22;76.68;99575.84;5373663;32;34939;-67
2022/11/22 01:53:03;;;;;;;;;;;;;;;6.66;72.99;99586.50;5332680;32;44556;-73
2022/11/22 01:56:06;;;;;;;;;;;;;;;6.57;72.69;99591.19;5341826;32;34853;-72
2022/11/22 01:59:08;;;;;;;;;;;;;;;4.96;79.90;99603.25;5351250;32;34777;-67
2022/11/22 02:02:11;;;;;;;;;;;;;;;6.42;74.25;99596.03;5339421;32;34647;-74
2022/11/22 02:05:14;;;;;;;;;;;;;;;5.76;78.37;99589.53;5349790;32;34979;-67
2022/11/22 02:08:35;;;;;;;;;;;;;;;6.39;75.06;99580.50;5333152;32;34966;-67
2022/11/22 02:11:37;;;;;;;;;;;;;;;6.55;74.54;99574.72;5363790;32;44568;-66
2022/11/22 02:14:39;;;;;;;;;;;;;;;6.53;73.31;99581.78;5337153;32;34294;-73
2022/11/22 02:17:41;;;;;;;;;;;;;;;5.99;75.39;99565.34;5333274;32;35982;-68
2022/11/22 02:20:43;;;;;;;;;;;;;;;5.14;80.43;99581.87;5353362;32;35455;-67
2022/11/22 02:23:55;;;;;;;;;;;;;;;5.74;79.31;99573.09;5335078;32;34554;-73
2022/11/22 02:26:57;;;;;;;;;;;;;;;5.61;79.96;99569.19;5371839;32;35329;-67
2022/11/22 02:29:59;;;;;;;;;;;;;;;6.00;76.91;99561.00;5357953;32;34661;-73
2022/11/22 02:33:01;;;;;;;;;;;;;;;5.65;78.14;99573.38;5354406;32;44049;-72
2022/11/22 02:36:03;;;;;;;;;;;;;;;6.44;76.75;99564.66;5363661;32;35403;-73
2022/11/22 02:39:05;;;;;;;;;;;;;;;6.56;75.60;99558.16;5345943;32;34464;-67
2022/11/22 02:42:07;;;;;;;;;;;;;;;7.13;72.76;99552.53;5372097;32;35454;-73
2022/11/22 02:45:09;;;;;;;;;;;;;;;6.71;74.45;99547.16;5348523;32;35375;-69
2022/11/22 02:48:11;;;;;;;;;;;;;;;6.88;73.69;99546.53;5370485;32;35298;-74
2022/11/22 02:51:18;;;;;;;;;;;;;;;6.89;73.33;99549.09;5345631;32;35029;-74
2022/11/22 02:54:20;;;;;;;;;;;;;;;7.21;71.04;99547.88;5350262;32;35448;-67
2022/11/22 02:57:22;;;;;;;;;;;;;;;7.12;71.85;99558.66;5347201;32;35090;-68
2022/11/22 03:00:24;;;;;;;;;;;;;;;6.07;76.95;99562.47;5347769;32;35427;-72
2022/11/22 03:03:26;;;;;;;;;;;;;;;6.37;76.57;99558.78;5370902;32;35678;-67
2022/11/22 03:06:28;;;;;;;;;;;;;;;7.18;71.52;99565.44;5364088;32;34664;-73
2022/11/22 03:09:31;;;;;;;;;;;;;;;6.92;71.14;99564.66;5365723;32;35204;-72
2022/11/22 03:12:33;;;;;;;;;;;;;;;6.68;72.36;99555.09;5335588;32;45467;-73
2022/11/22 03:15:35;;;;;;;;;;;;;;;6.20;73.98;99558.56;5350880;32;34926;-68
2022/11/22 03:18:37;;;;;;;;;;;;;;;6.10;75.62;99544.09;5350816;32;34253;-67
2022/11/22 03:21:39;;;;;;;;;;;;;;;6.90;72.18;99550.81;5321745;32;37265;-66
2022/11/22 03:24:41;;;;;;;;;;;;;;;7.19;71.27;99547.06;5349493;32;35429;-73
2022/11/22 03:27:43;;;;;;;;;;;;;;;7.21;70.72;99536.56;5333542;32;34594;-72
2022/11/22 03:30:44;;;;;;;;;;;;;;;7.34;70.34;99543.00;5367295;32;33692;-66
2022/11/22 03:33:46;;;;;;;;;;;;;;;6.93;72.60;99540.22;5346520;32;35345;-73
2022/11/22 03:36:48;;;;;;;;;;;;;;;6.87;73.70;99550.06;5334684;32;34812;-67
2022/11/22 03:39:50;;;;;;;;;;;;;;;6.89;72.61;99545.63;5345039;32;35110;-67
2022/11/22 03:42:52;;;;;;;;;;;;;;;6.80;73.45;99541.59;5350589;32;35749;-73
2022/11/22 03:45:54;;;;;;;;;;;;;;;6.84;72.74;99524.91;5368434;32;34930;-74
2022/11/22 03:48:56;;;;;;;;;;;;;;;7.15;72.35;99526.34;5345635;32;34877;-73
2022/11/22 03:51:57;;;;;;;;;;;;;;;7.03;72.77;99531.16;5376539;32;33675;-73
2022/11/22 03:54:59;;;;;;;;;;;;;;;7.06;72.09;99525.78;5366710;32;34676;-73
2022/11/22 03:58:01;;;;;;;;;;;;;;;7.27;69.85;99529.31;5352017;32;44523;-72
2022/11/22 04:01:03;;;;;;;;;;;;;;;7.19;70.41;99526.16;5352732;32;35699;-67
2022/11/22 04:04:05;;;;;;;;;;;;;;;6.26;72.64;99528.78;5345329;32;34479;-73
2022/11/22 04:07:07;;;;;;;;;;;;;;;6.18;71.02;99529.91;5371701;32;35088;-73
2022/11/22 04:10:09;;;;;;;;;;;;;;;6.72;69.88;99533.19;5361135;32;35159;-68
2022/11/22 04:13:10;;;;;;;;;;;;;;;6.84;67.98;99539.75;5375826;32;35389;-74
2022/11/22 04:16:12;;;;;;;;;;;;;;;5.69;70.75;99538.50;5359282;32;34928;-73
2022/11/22 04:19:14;;;;;;;;;;;;;;;6.29;69.61;99537.34;5332994;32;34804;-72
2022/11/22 04:22:16;;;;;;;;;;;;;;;6.21;68.65;99540.22;5368474;32;34887;-67
2022/11/22 04:25:18;;;;;;;;;;;;;;;6.36;68.42;99533.59;5364281;32;35051;-73
2022/11/22 04:28:21;;;;;;;;;;;;;;;6.44;68.25;99543.78;5377536;32;35493;-68
2022/11/22 04:34:51;;;;;;;;;;;;;;;6.02;70.21;99533.94;5372208;32;35127;-67
2022/11/22 04:37:53;;;;;;;;;;;;;;;6.04;70.09;99534.72;5365593;32;35662;-72
2022/11/22 04:40:55;;;;;;;;;;;;;;;6.42;67.83;99532.53;5357334;32;35107;-74
2022/11/22 04:53:59;;;;;;;;;;;;;;;5.28;70.54;99535.47;5346992;32;35175;-66
2022/11/22 04:57:01;;;;;;;;;;;;;;;5.63;67.87;99526.50;5342502;32;43197;-65
2022/11/22 05:00:03;;;;;;;;;;;;;;;5.81;68.54;99538.09;5348721;32;34830;-67
2022/11/22 05:03:05;;;;;;;;;;;;;;;5.51;68.31;99534.72;5348342;32;34610;-72
2022/11/22 05:06:09;;;;;;;;;;;;;;;5.18;70.04;99547.03;5364873;32;34403;-72
2022/11/22 05:09:11;;;;;;;;;;;;;;;5.27;69.19;99548.50;5332651;32;34912;-67
2022/11/22 05:12:13;;;;;;;;;;;;;;;5.03;69.64;99550.97;5334514;32;34831;-73
2022/11/22 05:15:14;;;;;;;;;;;;;;;4.95;71.37;99558.13;5359529;32;34981;-67
2022/11/22 05:18:20;;;;;;;;;;;;;;;5.47;68.71;99555.69;5341498;32;34669;-68
2022/11/22 05:21:22;;;;;;;;;;;;;;;4.39;72.24;99564.97;5333726;32;34421;-72
2022/11/22 05:24:24;;;;;;;;;;;;;;;5.26;68.22;99547.66;5349500;32;35937;-66
2022/11/22 05:27:25;;;;;;;;;;;;;;;4.98;68.32;99559.81;5368287;32;34481;-72
2022/11/22 05:30:27;;;;;;;;;;;;;;;4.85;69.68;99551.50;5350361;32;34890;-66
2022/11/22 05:33:29;;;;;;;;;;;;;;;5.25;67.62;99545.97;5344885;32;35522;-67
2022/11/22 05:36:32;;;;;;;;;;;;;;;5.36;66.90;99559.50;5364033;32;42750;-67
2022/11/22 05:39:33;;;;;;;;;;;;;;;5.15;67.33;99566.25;5343429;32;35600;-73
2022/11/22 05:42:35;;;;;;;;;;;;;;;5.08;68.26;99571.66;5366127;32;34796;-67
2022/11/22 05:45:37;;;;;;;;;;;;;;;4.64;70.49;99566.00;5349550;32;35449;-67
2022/11/22 05:48:40;;;;;;;;;;;;;;;4.40;71.68;99566.66;5361227;32;34979;-74
2022/11/22 05:51:42;;;;;;;;;;;;;;;4.97;69.04;99563.31;5350241;32;34990;-67
2022/11/22 05:54:44;;;;;;;;;;;;;;;3.97;71.85;99560.81;5346796;32;35328;-73
2022/11/22 05:57:45;;;;;;;;;;;;;;;4.37;72.04;99567.59;5373161;32;35001;-67
2022/11/22 06:00:47;;;;;;;;;;;;;;;4.33;72.16;99566.81;5344711;32;34846;-74
2022/11/22 06:03:49;;;;;;;;;;;;;;;5.55;66.57;99566.75;5358489;32;34888;-66
2022/11/22 06:06:51;;;;;;;;;;;;;;;5.63;66.04;99569.97;5330253;32;35654;-67
2022/11/22 06:09:53;;;;;;;;;;;;;;;4.24;70.14;99580.06;5357984;32;34797;-67
2022/11/22 06:12:55;;;;;;;;;;;;;;;5.14;69.42;99600.13;5348940;32;35022;-74
2022/11/22 06:15:58;;;;;;;;;;;;;;;5.23;67.93;99591.19;5358503;32;35743;-68
2022/11/22 06:19:00;;;;;;;;;;;;;;;5.29;67.77;99593.62;5359063;32;34923;-67
2022/11/22 06:22:02;;;;;;;;;;;;;;;5.31;68.09;99586.59;5342423;32;44636;-69
2022/11/22 06:25:04;;;;;;;;;;;;;;;5.36;67.75;99590.78;5363797;32;34396;-76
2022/11/22 06:28:06;;;;;;;;;;;;;;;5.26;67.78;99593.69;5348951;32;35041;-67
2022/11/22 06:31:17;;;;;;;;;;;;;;;3.89;73.53;99599.16;5358587;32;34989;-63
2022/11/22 06:34:19;;;;;;;;;;;;;;;4.46;71.91;99606.38;5345001;32;34352;-68
2022/11/22 06:37:21;;;;;;;;;;;;;;;5.32;71.09;99599.59;5345908;32;34744;-66
2022/11/22 06:40:23;;;;;;;;;;;;;;;5.98;71.22;99577.50;5357716;32;34821;-66
2022/11/22 06:43:26;;;;;;;;;;;;;;;5.31;68.68;99584.84;5340866;32;34936;-66
2022/11/22 06:46:28;;;;;;;;;;;;;;;4.65;71.41;99585.06;5357879;32;35453;-67
2022/11/22 06:49:30;;;;;;;;;;;;;;;5.07;69.02;99583.81;5344755;32;34257;-66
2022/11/22 06:52:32;;;;;;;;;;;;;;;4.95;69.25;99591.13;5346486;32;44490;-70
2022/11/22 06:55:35;;;;;;;;;;;;;;;5.11;68.80;99597.63;5333071;32;33965;-66
2022/11/22 06:58:52;;;;;;;;;;;;;;;5.02;69.18;99592.66;5341910;32;35533;-68
2022/11/22 07:01:53;;;;;;;;;;;;;;;5.56;68.05;99586.72;5347269;32;35490;-69
2022/11/22 07:04:55;;;;;;;;;;;;;;;5.45;68.12;99584.44;5341717;32;34408;-69
2022/11/22 07:08:17;;;;;;;;;;;;;;;5.58;67.46;99579.69;5361027;32;34863;-68
2022/11/22 07:11:21;;;;;;;;;;;;;;;4.90;69.41;99593.91;5350043;32;34295;-70
2022/11/22 07:14:23;;;;;;;;;;;;;;;5.15;68.53;99600.09;5347040;32;35497;-71
2022/11/22 07:17:25;;;;;;;;;;;;;;;5.54;67.33;99598.91;5362072;32;35641;-73
2022/11/22 07:20:27;;;;;;;;;;;;;;;5.54;68.48;99580.66;5327198;32;35602;-71
2022/11/22 07:23:29;;;;;;;;;;;;;;;5.29;66.91;99594.47;5345857;32;33187;-66
2022/11/22 07:26:30;;;;;;;;;;;;;;;4.89;70.45;99580.03;5345688;32;35512;-68
2022/11/22 07:29:32;;;;;;;;;;;;;;;5.00;70.88;99599.69;5363422;32;44407;-68
2022/11/22 07:32:34;;;;;;;;;;;;;;;5.40;67.90;99602.78;5353497;32;35579;-66
2022/11/22 07:35:36;;;;;;;;;;;;;;;5.67;67.17;99595.06;5351354;32;34600;-70
2022/11/22 07:38:40;;;;;;;;;;;;;;;6.62;63.78;99584.88;5362251;32;35562;-67
2022/11/22 07:41:43;;;;;;;;;;;;;;;6.66;63.83;99594.34;5335543;32;34230;-73
2022/11/22 07:44:45;;;;;;;;;;;;;;;5.71;67.06;99596.63;5360290;32;34483;-73
2022/11/22 07:47:47;;;;;;;;;;;;;;;5.95;66.49;99600.25;5346303;32;34280;-68
2022/11/22 07:50:49;;;;;;;;;;;;;;;6.15;65.52;99597.84;5353667;32;34377;-74
2022/11/22 07:53:51;;;;;;;;;;;;;;;5.07;68.51;99604.66;5357585;32;36720;-75
2022/11/22 07:56:53;;;;;;;;;;;;;;;5.27;68.54;99593.66;5336924;32;35841;-70
2022/11/22 07:59:55;;;;;;;;;;;;;;;6.44;65.78;99582.91;5366304;32;34302;-74
2022/11/22 08:02:58;;;;;;;;;;;;;;;6.47;65.15;99582.84;5345035;32;34447;-70
2022/11/22 08:06:00;;;;;;;;;;;;;;;6.78;63.96;99582.59;5343820;32;36305;-66
2022/11/22 08:09:02;;;;;;;;;;;;;;;6.09;67.06;99571.94;5347602;32;43829;-66
2022/11/22 08:12:04;;;;;;;;;;;;;;;6.01;66.51;99578.34;5357799;32;34443;-70
2022/11/22 08:15:06;;;;;;;;;;;;;;;6.83;64.07;99579.78;5350042;32;33806;-71
2022/11/22 08:18:08;;;;;;;;;;;;;;;6.56;64.55;99573.81;5332397;32;34086;-70
2022/11/22 08:21:11;;;;;;;;;;;;;;;6.35;65.80;99588.47;5336087;32;35569;-69
2022/11/22 08:24:13;;;;;;;;;;;;;;;5.95;67.20;99579.38;5343377;32;34485;-70
2022/11/22 08:27:15;;;;;;;;;;;;;;;6.34;66.67;99576.34;5330540;32;34355;-69
2022/11/22 08:30:17;;;;;;;;;;;;;;;6.66;64.98;99563.00;5343882;32;34362;-65
2022/11/22 08:33:19;;;;;;;;;;;;;;;6.62;65.37;99565.75;5341251;32;37573;-63
2022/11/22 08:36:21;;;;;;;;;;;;;;;6.17;66.99;99572.53;5360930;32;34956;-68
2022/11/22 08:39:23;;;;;;;;;;;;;;;5.98;68.71;99576.66;5334489;32;34442;-67
2022/11/22 08:42:25;;;;;;;;;;;;;;;6.75;65.98;99575.72;5346935;32;34354;-74
2022/11/22 08:45:27;;;;;;;;;;;;;;;7.06;64.77;99578.03;5346137;32;32248;-68
2022/11/22 08:48:29;;;;;;;;;;;;;;;6.65;65.61;99568.28;5346998;32;34253;-75
2022/11/22 08:51:31;;;;;;;;;;;;;;;6.53;66.55;99572.19;5352889;32;43888;-76
2022/11/22 08:54:33;;;;;;;;;;;;;;;6.92;65.51;99561.19;5365484;32;35233;-68
2022/11/22 08:57:39;;;;;;;;;;;;;;;6.16;67.21;99583.03;5358171;32;34861;-70
2022/11/22 09:00:40;;;;;;;;;;;;;;;5.88;69.14;99580.47;5360078;32;32895;-69
2022/11/22 09:03:43;;;;;;;;;;;;;;;6.18;67.94;99570.78;5357424;32;34183;-71
2022/11/22 09:06:46;;;;;;;;;;;;;;;6.35;68.54;99575.44;5354053;32;36179;-69
2022/11/22 09:10:10;;;;;;;;;;;;;;;7.07;65.49;99577.13;5345482;32;44972;-72
2022/11/22 09:13:13;;;;;;;;;;;;;;;5.86;70.68;99572.69;5337577;32;34456;-75
2022/11/22 09:16:16;;;;;;;;;;;;;;;6.42;67.90;99559.50;5349945;32;34723;-78
2022/11/22 09:19:18;;;;;;;;;;;;;;;6.67;68.57;99563.84;5351686;32;35651;-77
2022/11/22 09:22:20;;;;;;;;;;;;;;;6.30;69.16;99561.69;5314416;32;34277;-65
2022/11/22 09:25:29;;;;;;;;;;;;;;;7.55;64.94;99549.16;5365832;32;34120;-72
2022/11/22 09:28:32;;;;;;;;;;;;;;;6.61;67.27;99556.22;5325525;32;44969;-76
2022/11/22 09:31:34;;;;;;;;;;;;;;;7.32;66.39;99553.53;5355340;32;34251;-72
2022/11/22 09:34:36;;;;;;;;;;;;;;;7.40;65.04;99537.53;5351937;32;34350;-70
2022/11/22 09:37:38;;;;;;;;;;;;;;;7.37;66.04;99542.91;5348745;32;36078;-70
2022/11/22 09:40:44;;;;;;;;;;;;;;;7.08;66.09;99541.41;5366829;32;35223;-66
2022/11/22 09:43:55;;;;;;;;;;;;;;;6.59;69.06;99540.62;5343206;32;34358;-73
2022/11/22 09:47:09;;;;;;;;;;;;;;;6.23;70.98;99535.78;5364884;32;34705;-73
2022/11/22 09:50:21;;;;;;;;;;;;;;;6.97;68.68;99528.75;5345986;32;35582;-70
2022/11/22 09:53:25;;;;;;;;;;;;;;;7.47;67.35;99514.59;5346923;32;35516;-69
2022/11/22 09:56:27;;;;;;;;;;;;;;;7.20;66.56;99508.72;5349336;32;34627;-71
2022/11/22 09:59:30;;;;;;;;;;;;;;;7.82;65.58;99497.50;5338123;32;34703;-72
2022/11/22 10:02:36;;;;;;;;;;;;;;;7.66;65.86;99506.88;5345452;32;44837;-71
2022/11/22 10:06:00;;;;;;;;;;;;;;;7.96;65.31;99496.91;5326878;32;34308;-73
2022/11/22 10:09:21;;;;;;;;;;;;;;;7.69;65.37;99488.44;5333905;32;44425;-72
2022/11/22 10:12:41;;;;;;;;;;;;;;;7.82;65.44;99480.03;5353344;32;34396;-70
2022/11/22 10:15:43;;;;;;;;;;;;;;;7.91;66.12;99484.00;5347973;32;35803;-71
2022/11/22 10:18:51;;;;;;;;;;;;;;;8.99;62.38;99474.87;5345442;32;35341;-69
2022/11/22 10:21:53;;;;;;;;;;;;;;;7.80;64.64;99475.78;5315750;32;34205;-69
2022/11/22 10:24:55;;;;;;;;;;;;;;;8.22;63.89;99482.69;5327690;32;34427;-71
2022/11/22 10:27:59;;;;;;;;;;;;;;;8.55;63.48;99469.91;5332279;32;34651;-70
2022/11/22 10:31:01;;;;;;;;;;;;;;;8.48;62.92;99477.19;5331972;32;44625;-72
2022/11/22 10:34:10;;;;;;;;;;;;;;;9.07;61.67;99464.84;5359466;32;34066;-70
2022/11/22 10:37:18;;;;;;;;;;;;;;;9.25;60.88;99458.75;5345720;32;34281;-71
2022/11/22 10:40:25;;;;;;;;;;;;;;;8.56;62.40;99459.34;5336139;32;34744;-69
2022/11/22 10:43:47;;;;;;;;;;;;;;;9.06;61.19;99465.78;5343027;32;34627;-72
2022/11/22 10:46:52;;;;;;;;;;;;;;;8.48;63.42;99463.25;5345453;32;36150;-75
2022/11/22 10:50:05;;;;;;;;;;;;;;;9.49;60.33;99446.22;5354054;32;33194;-71
2022/11/22 10:53:10;;;;;;;;;;;;;;;8.93;61.73;99444.53;5344099;32;44589;-72
2022/11/22 10:56:15;;;;;;;;;;;;;;;8.17;64.29;99442.78;5348513;32;34298;-74
2022/11/22 10:59:23;;;;;;;;;;;;;;;8.60;63.02;99421.63;5348076;32;35624;-71
2022/11/22 11:02:50;;;;;;;;;;;;;;;7.43;66.90;99432.84;5337330;32;34241;-72
2022/11/22 11:05:59;;;;;;;;;;;;;;;8.06;65.02;99419.72;5347338;32;34309;-71
2022/11/22 11:09:22;;;;;;;;;;;;;;;7.92;65.44;99422.94;5342645;32;36190;-65
2022/11/22 11:12:49;;;;;;;;;;;;;;;7.86;66.75;99415.34;5351255;32;35744;-69
2022/11/22 11:15:54;;;;;;;;;;;;;;;8.28;65.48;99404.72;5358897;32;35672;-64
2022/11/22 11:19:09;;;;;;;;;;;;;;;9.18;62.67;99392.66;5330691;32;34759;-69
2022/11/22 11:22:14;;;;;;;;;;;;;;;8.13;65.58;99395.81;5353124;32;35557;-69
2022/11/22 11:25:29;;;;;;;;;;;;;;;8.75;64.20;99379.91;5352012;32;36694;-77
2022/11/22 11:28:33;;;;;;;;;;;;;;;8.22;65.43;99383.22;5343447;32;44648;-69
2022/11/22 11:31:42;;;;;;;;;;;;;;;7.89;66.32;99389.03;5361063;32;34339;-66
2022/11/22 11:35:07;;;;;;;;;;;;;;;8.06;65.57;99372.62;5340061;32;35592;-66
2022/11/22 11:38:28;;;;;;;;;;;;;;;8.28;65.29;99357.62;5350659;32;44711;-70
2022/11/22 11:41:31;;;;;;;;;;;;;;;8.62;64.41;99362.16;5352176;32;34224;-67
2022/11/22 11:44:36;;;;;;;;;;;;;;;8.66;64.52;99355.84;5342113;32;44376;-63
2022/11/22 11:47:38;;;;;;;;;;;;;;;8.43;65.25;99350.84;5362463;32;34286;-65
2022/11/22 11:50:40;;;;;;;;;;;;;;;8.29;64.10;99353.22;5354859;32;34331;-66
2022/11/22 11:53:49;;;;;;;;;;;;;;;7.85;66.89;99351.69;5361535;32;34612;-66
2022/11/22 11:56:51;;;;;;;;;;;;;;;8.53;64.88;99336.41;5349865;32;34759;-67
2022/11/22 11:59:53;;;;;;;;;;;;;;;8.15;66.67;99340.78;5352196;32;34579;-68
2022/11/22 12:02:59;;;;;;;;;;;;;;;7.78;67.75;99341.56;5328157;32;35691;-67
2022/11/22 12:06:10;;;;;;;;;;;;;;;8.32;66.67;99334.78;5337759;32;36321;-66
2022/11/22 12:09:25;;;;;;;;;;;;;;;7.51;69.26;99334.03;5354748;32;36163;-64
2022/11/22 12:12:30;;;;;;;;;;;;;;;7.84;67.94;99325.59;5349304;32;35911;-66
2022/11/22 12:15:35;;;;;;;;;;;;;;;7.97;68.03;99328.53;5358484;32;44715;-64
2022/11/22 12:18:43;;;;;;;;;;;;;;;8.31;65.83;99322.59;5314716;32;34313;-64
2022/11/22 12:21:51;;;;;;;;;;;;;;;8.10;67.80;99312.19;5330285;32;34314;-64
2022/11/22 12:24:55;;;;;;;;;;;;;;;7.83;68.64;99305.59;5348397;32;34458;-65
2022/11/22 12:28:18;;;;;;;;;;;;;;;8.24;66.62;99306.31;5346227;32;35875;-63
2022/11/22 12:31:28;;;;;;;;;;;;;;;7.61;69.06;99300.50;5365593;32;34273;-68
2022/11/22 12:34:34;;;;;;;;;;;;;;;7.68;69.39;99306.28;5348000;32;33958;-67
2022/11/22 12:37:38;;;;;;;;;;;;;;;7.15;71.16;99305.09;5342137;32;45375;-69
2022/11/22 12:40:40;;;;;;;;;;;;;;;8.24;67.86;99295.84;5365664;32;35988;-70
2022/11/22 12:43:48;;;;;;;;;;;;;;;8.40;66.58;99288.16;5325871;32;34286;-68
2022/11/22 12:46:52;;;;;;;;;;;;;;;7.64;68.56;99286.41;5359584;32;35990;-69
2022/11/22 12:50:13;;;;;;;;;;;;;;;8.09;68.36;99283.47;5354769;32;34340;-67
2022/11/22 12:53:16;;;;;;;;;;;;;;;8.09;67.99;99286.94;5337500;32;34514;-69
2022/11/22 12:56:26;;;;;;;;;;;;;;;6.43;73.97;99281.91;5346642;32;34926;-64
2022/11/22 12:59:37;;;;;;;;;;;;;;;7.47;71.63;99284.53;5332505;32;44592;-66
2022/11/22 13:02:42;;;;;;;;;;;;;;;7.02;72.32;99286.47;5355337;32;36694;-66
2022/11/22 13:05:55;;;;;;;;;;;;;;;7.23;71.89;99276.00;5343871;32;35769;-67
2022/11/22 13:08:57;;;;;;;;;;;;;;;7.75;70.27;99271.94;5348680;32;36210;-65
2022/11/22 13:12:05;;;;;;;;;;;;;;;6.85;72.40;99273.25;5355296;32;46194;-69
2022/11/22 13:15:11;;;;;;;;;;;;;;;6.86;73.37;99276.72;5340513;32;34391;-71
2022/11/22 13:18:13;;;;;;;;;;;;;;;7.24;72.49;99270.72;5329094;32;981771;-65
2022/11/22 13:21:18;;;;;;;;;;;;;;;7.27;72.56;99264.50;5319283;32;34291;-67
2022/11/22 13:24:20;;;;;;;;;;;;;;;7.25;71.20;99277.63;5366706;32;34970;-67
2022/11/22 13:27:30;;;;;;;;;;;;;;;7.72;68.55;99273.84;5352343;32;34515;-67
2022/11/22 13:30:32;;;;;;;;;;;;;;;8.47;66.45;99273.84;5357202;32;45490;-67
2022/11/22 13:33:34;;;;;;;;;;;;;;;8.21;67.52;99277.69;5348239;32;34298;-65
2022/11/22 13:36:37;;;;;;;;;;;;;;;7.19;72.27;99290.97;5337066;32;35628;-65
2022/11/22 13:39:43;;;;;;;;;;;;;;;7.34;71.03;99286.84;5343125;32;35593;-69
2022/11/22 13:42:45;;;;;;;;;;;;;;;8.01;68.16;99276.00;5344364;32;35446;-69
2022/11/22 13:45:50;;;;;;;;;;;;;;;7.75;68.09;99276.34;5355498;32;35559;-67
2022/11/22 13:48:53;;;;;;;;;;;;;;;7.48;70.00;99266.19;5349929;32;36158;-68
2022/11/22 13:51:55;;;;;;;;;;;;;;;7.06;72.38;99279.34;5359655;32;34430;-64
2022/11/22 13:55:02;;;;;;;;;;;;;;;7.77;68.97;99271.88;5358698;32;34425;-63
2022/11/22 13:58:22;;;;;;;;;;;;;;;7.74;67.63;99264.19;5343528;32;45272;-66
2022/11/22 14:01:33;;;;;;;;;;;;;;;7.36;68.74;99268.50;5359186;32;34382;-72
2022/11/22 14:04:38;;;;;;;;;;;;;;;7.00;71.10;99270.00;5347469;32;44127;-68
2022/11/22 14:07:41;;;;;;;;;;;;;;;6.95;71.38;99268.47;5330104;32;35542;-71
2022/11/22 14:10:58;;;;;;;;;;;;;;;6.95;70.06;99269.31;5357579;32;34393;-72
2022/11/22 14:14:12;;;;;;;;;;;;;;;6.22;74.32;99277.53;5330395;32;34363;-80
2022/11/22 14:17:14;;;;;;;;;;;;;;;7.47;70.04;99259.28;5358962;32;34476;-75
2022/11/22 14:20:25;;;;;;;;;;;;;;;6.45;73.89;99264.44;5315016;32;34568;-68
2022/11/22 14:23:33;;;;;;;;;;;;;;;6.35;74.34;99270.91;5355707;32;34898;-68
2022/11/22 14:26:35;;;;;;;;;;;;;;;6.46;73.80;99262.69;5359557;32;44582;-71
2022/11/22 14:30:00;;;;;;;;;;;;;;;5.78;75.09;99261.78;5353788;32;34205;-69
2022/11/22 14:33:03;;;;;;;;;;;;;;;5.60;77.60;99280.72;5339280;32;46892;-66
2022/11/22 14:36:05;;;;;;;;;;;;;;;6.28;74.95;99274.69;5343974;32;34491;-69
2022/11/22 14:39:25;;;;;;;;;;;;;;;6.71;72.62;99265.16;5359986;32;36249;-70
2022/11/22 14:42:34;;;;;;;;;;;;;;;5.54;76.20;99268.78;5367456;32;44762;-66
2022/11/22 14:45:42;;;;;;;;;;;;;;;6.13;74.50;99264.88;5358772;32;35293;-74
2022/11/22 14:49:05;;;;;;;;;;;;;;;6.82;71.62;99268.13;5370189;32;35926;-68
2022/11/22 14:52:26;;;;;;;;;;;;;;;7.03;70.17;99267.25;5353943;32;44573;-72
2022/11/22 14:55:31;;;;;;;;;;;;;;;5.92;74.90;99272.56;5352128;32;34373;-73
2022/11/22 14:58:35;;;;;;;;;;;;;;;5.91;74.08;99268.28;5349087;32;44491;-72
2022/11/22 15:01:46;;;;;;;;;;;;;;;6.40;73.78;99268.13;5343731;32;35938;-65
2022/11/22 15:04:54;;;;;;;;;;;;;;;6.34;72.27;99268.38;5344988;32;35533;-66
2022/11/22 15:08:35;;;;;;;;;;;;;;;5.51;75.85;99262.81;5347267;32;35044;-73
2022/11/22 15:12:03;;;;;;;;;;;;;;;5.93;75.18;99244.75;5342205;32;34958;-71
2022/11/22 15:15:10;;;;;;;;;;;;;;;6.78;71.03;99257.00;5344816;32;44570;-73
2022/11/22 15:18:33;;;;;;;;;;;;;;;6.76;70.58;99247.50;5334045;32;45684;-66
2022/11/22 15:22:03;;;;;;;;;;;;;;;6.24;70.77;99245.25;5318517;32;34692;-77
2022/11/22 15:25:28;;;;;;;;;;;;;;;6.72;70.85;99256.41;5373902;32;34808;-72
2022/11/22 15:28:50;;;;;;;;;;;;;;;6.80;70.78;99259.53;5358098;32;36735;-73
2022/11/22 15:32:16;;;;;;;;;;;;;;;6.24;72.01;99257.44;5355543;32;35768;-66
2022/11/22 15:35:43;;;;;;;;;;;;;;;6.00;73.86;99263.63;5358173;32;44955;-73
2022/11/22 15:39:05;;;;;;;;;;;;;;;5.82;74.04;99262.53;5341419;32;45108;-65
2022/11/22 15:42:27;;;;;;;;;;;;;;;6.10;73.63;99259.75;5365303;32;36657;-65
2022/11/22 15:45:49;;;;;;;;;;;;;;;5.83;73.32;99261.63;5374459;32;34458;-66
2022/11/22 15:49:15;;;;;;;;;;;;;;;6.47;73.09;99260.00;5333584;32;34858;-66
2022/11/22 15:52:37;;;;;;;;;;;;;;;6.76;70.50;99258.81;5361229;32;44978;-72
2022/11/22 15:56:06;;;;;;;;;;;;;;;6.65;70.69;99258.41;5346561;32;35564;-73
2022/11/22 15:59:35;;;;;;;;;;;;;;;6.27;71.98;99259.94;5339561;32;35125;-65
2022/11/22 16:02:38;;;;;;;;;;;;;;;5.79;74.11;99265.25;5364553;32;44700;-65
2022/11/22 16:05:40;;;;;;;;;;;;;;;6.10;72.74;99250.16;5335221;32;35400;-66
2022/11/22 16:09:02;;;;;;;;;;;;;;;6.36;71.40;99258.72;5352233;32;45042;-73
2022/11/22 16:12:24;;;;;;;;;;;;;;;6.35;72.09;99246.59;5355159;32;35548;-66
2022/11/22 16:15:27;;;;;;;;;;;;;;;5.97;73.93;99247.16;5347794;32;35725;-65
2022/11/22 16:18:28;;;;;;;;;;;;;;;5.83;73.15;99249.44;5370680;32;34501;-65
2022/11/22 16:21:31;;;;;;;;;;;;;;;5.75;73.54;99253.25;5328891;32;37893;-73
2022/11/22 16:24:33;;;;;;;;;;;;;;;6.11;71.59;99240.56;5361186;32;44522;-65
2022/11/22 16:27:35;;;;;;;;;;;;;;;7.33;68.10;99236.31;5348415;32;36441;-66
2022/11/22 16:30:43;;;;;;;;;;;;;;;6.99;69.10;99242.16;5337566;32;34470;-72
2022/11/22 16:33:45;;;;;;;;;;;;;;;6.36;70.06;99246.53;5356804;32;35296;-66